Date,TemperatureHighF,TemperatureAvgF,TemperatureLowF,DewpointHighF,DewpointAvgF,DewpointLowF,HumidityHigh,HumidityAvg,HumidityLow,PressureMaxIn,PressureMinIn,WindSpeedMaxMPH,WindSpeedAvgMPH,GustSpeedMaxMPH,PrecipitationSumIn
2013-8-1,83.8,73.4,66.9,73.9,70.5,66.8,100,92,68,30.00,29.81,14,1,18,0.72
2013-8-2,84.3,74.2,65.0,69.8,66.5,59.8,100,80,47,30.00,29.87,10,0,16,0.01
2013-8-3,84.9,74.9,67.3,74.7,68.9,65.1,100,83,54,29.98,29.89,7,0,11,0.00
2013-8-4,81.2,74.1,66.4,70.3,64.8,57.3,97,75,47,30.03,29.89,16,1,16,0.00
2013-8-5,78.5,69.7,59.5,66.0,62.0,56.8,98,78,52,30.11,29.99,9,0,9,0.00
2013-8-6,81.1,72.9,67.9,72.2,67.7,64.0,95,84,68,30.03,29.95,13,1,14,0.00
2013-8-7,84.0,75.6,69.3,73.1,69.7,66.8,95,83,64,30.07,30.00,14,1,17,0.00
2013-8-8,85.9,77.9,72.5,74.4,71.7,70.0,94,82,62,30.04,29.96,13,1,15,0.00
2013-8-9,88.6,80.5,74.6,78.7,74.1,71.2,92,82,66,29.98,29.90,15,3,18,0.00
2013-8-10,88.2,78.1,72.8,76.4,73.8,71.7,100,88,63,30.07,29.96,12,1,14,0.05
2013-8-11,83.4,75.7,71.1,76.6,73.0,70.4,100,92,74,30.10,29.99,8,0,9,0.00
2013-8-12,88.0,78.1,68.9,75.6,71.7,68.3,100,83,54,30.03,29.91,7,0,8,0.00
2013-8-13,84.9,75.8,70.8,75.1,72.9,70.7,100,92,66,29.92,29.74,11,1,13,0.02
2013-8-14,73.7,68.7,60.1,72.8,60.3,50.3,100,77,48,30.11,29.78,17,1,17,0.00
2013-8-15,75.4,63.8,54.2,62.0,57.0,51.8,99,81,46,30.18,30.08,10,0,10,0.00
2013-8-16,73.5,63.5,53.9,64.5,58.9,53.8,100,87,58,30.19,30.11,7,0,10,0.00
2013-8-17,74.2,66.0,57.3,68.8,62.8,57.2,100,90,71,30.22,30.16,13,1,15,0.02
2013-8-18,66.6,64.9,63.7,66.5,64.8,63.6,100,100,98,30.22,30.12,12,1,13,0.63
2013-8-19,73.2,67.1,63.7,70.0,66.3,63.6,100,97,89,30.20,30.07,9,0,10,0.19
2013-8-20,83.6,71.9,65.3,72.9,68.9,65.2,100,91,66,30.18,30.09,6,0,7,0.00
2013-8-21,84.7,75.5,67.9,77.1,72.4,67.5,100,91,73,30.20,30.07,10,0,11,0.00
2013-8-22,86.5,78.1,70.9,74.4,71.0,64.9,100,81,52,30.10,29.96,9,0,10,0.00
2013-8-23,82.6,70.8,63.5,73.1,68.3,62.3,100,93,66,30.11,29.92,15,1,19,0.72
2013-8-24,81.1,68.7,57.6,66.6,61.6,57.5,100,81,48,30.30,30.11,14,1,16,0.01
2013-8-25,79.2,68.2,59.0,67.2,61.4,56.0,100,81,48,30.40,30.28,7,0,9,0.00
2013-8-26,82.0,69.2,56.0,66.7,60.9,55.1,99,77,48,30.31,30.05,10,0,10,0.00
2013-8-27,87.6,75.2,63.5,76.3,68.7,60.7,98,82,57,30.06,29.91,10,1,11,0.00
2013-8-28,77.2,74.1,70.3,75.1,72.3,69.0,99,94,84,29.97,29.80,13,1,15,0.02
2013-8-29,82.4,75.1,69.9,74.5,72.3,69.8,100,92,71,30.01,29.79,14,1,17,0.01
2013-8-30,84.7,74.3,65.3,72.2,68.9,65.2,100,85,59,30.05,29.91,9,0,10,0.00
2013-8-31,87.0,75.9,68.3,75.7,70.4,66.2,100,84,65,29.93,29.81,15,1,15,0.00